Flight Track Log - Related Links

Times and Time Zones

All times are in EDT time to prevent confusion due to time zone crossing. See the N770NC flight status page for this flight to view local times or setup timezone preferences in your user account.

Time Position Orientation Groundspeed Altitude Reporting Facility
EDT Latitude Longitude Course Direction KTS MPH feet Rate Location/Type
Wed 03:10:41 PM 33.6333 -84.3833 228° Southwest 182 209 2,400  Level Atlanta TRACON
Wed 03:11:41 PM 33.6167 -84.3167 107° East 250 288 4,600 2,250 Climbing Atlanta TRACON
Wed 03:12:41 PM 33.5667 -84.2833 151° Southeast 272 313 6,900 2,173 Climbing Atlanta TRACON
Wed 03:13:00 PM 33.1965 -84.4167 180° South  Level FlightAware Approximate
Wed 03:13:48 PM 33.4808 -84.2781 177° South 295 339 9,200  Level Atlanta Center
Wed 03:14:00 PM 33.0873 -84.4167 180° South  Level FlightAware Approximate
Wed 03:14:48 PM 33.4017 -84.3175 203° Southwest 301 346 10,700  Level Atlanta Center
Wed 03:15:00 PM 32.9966 -84.4659 228° Southwest  Level FlightAware Approximate
Wed 03:15:48 PM 33.3053 -84.3719 205° Southwest 333 383 12,400  Level Atlanta Center
Wed 03:16:48 PM 33.2133 -84.4211 204° Southwest 353 406 14,600 1,900 Climbing Atlanta Center
Wed 03:17:48 PM 33.1192 -84.4778 207° Southwest 369 425 16,200 1,700 Climbing Atlanta Center
Wed 03:18:48 PM 33.0231 -84.5294 204° Southwest 381 438 18,000 1,600 Climbing Atlanta Center
Wed 03:19:48 PM 32.9144 -84.5583 193° South 389 448 19,400 1,400 Climbing Atlanta Center
Wed 03:20:48 PM 32.8036 -84.5728 186° South 401 461 20,800 1,150 Climbing Atlanta Center
Wed 03:21:48 PM 32.6950 -84.5842 185° South 415 478 21,700 1,050 Climbing Atlanta Center
Wed 03:22:48 PM 32.5803 -84.5983 186° South 426 490 22,900 1,200 Climbing Atlanta Center
Wed 03:23:48 PM 32.4839 -84.6742 214° Southwest 407 468 24,100 1,050 Climbing Atlanta Center
Wed 03:24:48 PM 32.4394 -84.8017 248° West 387 445 25,000 950 Climbing Atlanta Center
Wed 03:25:48 PM 32.4050 -84.9319 253° West 392 451 26,000 1,400 Climbing Atlanta Center
Wed 03:26:48 PM 32.3811 -85.0669 258° West 404 465 27,800 1,000 Climbing Atlanta Center
Wed 03:27:48 PM 32.3611 -85.2019 260° West 417 480 28,000 100 Climbing Atlanta Center
Wed 03:28:48 PM 32.3389 -85.3417 259° West 430 495 28,000  Level Atlanta Center
Wed 03:29:48 PM 32.3247 -85.4842 263° West 435 501 28,000  Level Atlanta Center
Wed 03:30:48 PM 32.3083 -85.6239 262° West 435 501 28,000  Level Atlanta Center
Wed 03:31:48 PM 32.2939 -85.7661 263° West 440 506 28,000  Level Atlanta Center
Wed 03:32:48 PM 32.2731 -85.9131 261° West 447 514 28,000  Level Atlanta Center
Wed 03:33:48 PM 32.2561 -86.0553 262° West 447 514 28,000  Level Atlanta Center
Wed 03:34:48 PM 32.2367 -86.2169 262° West 447 514 28,000  Level Atlanta Center
Wed 03:35:48 PM 32.2236 -86.3614 264° West 447 514 28,000  Level Atlanta Center
Wed 03:36:48 PM 32.2147 -86.4914 265° West 447 514 28,000  Level Atlanta Center
Wed 03:37:48 PM 32.1994 -86.6333 263° West 442 509 28,000  Level Atlanta Center
Wed 03:38:48 PM 32.1731 -86.7847 258° West 442 509 28,000  Level Atlanta Center
Wed 03:39:48 PM 32.1594 -86.9289 264° West 447 514 28,000  Level Atlanta Center
Wed 03:40:48 PM 32.1394 -87.0731 261° West 447 514 28,000  Level Atlanta Center
Wed 03:41:48 PM 32.1231 -87.2172 262° West 447 514 28,000  Level Atlanta Center
Wed 03:42:48 PM 32.1111 -87.3614 264° West 447 514 28,000  Level Atlanta Center
Wed 03:43:48 PM 32.0944 -87.5078 262° West 447 514 28,000  Level Atlanta Center
Wed 03:45:20 PM 32.0719 -87.7169 263° West 443 510 28,000  Level Memphis Center
Wed 03:46:04 PM 32.0403 -87.8186 250° West 448 516 28,000  Level Houston Center
Wed 03:47:06 PM 31.9978 -87.9561 250° West 448 516 28,000  Level Houston Center
Wed 03:48:09 PM 31.9522 -88.0925 249° West 450 518 28,000  Level Houston Center
Wed 03:49:10 PM 31.9036 -88.2264 247° West 451 519 28,000  Level Houston Center
Wed 03:50:13 PM 31.8408 -88.3858 245° Southwest 451 519 28,000  Level Houston Center
Wed 03:51:15 PM 31.7867 -88.5178 244° Southwest 452 520 28,000  Level Houston Center
Wed 03:52:17 PM 31.7308 -88.6489 243° Southwest 451 519 28,000  Level Houston Center
Wed 03:53:19 PM 31.6758 -88.7806 244° Southwest 454 522 28,000  Level Houston Center
Wed 03:54:21 PM 31.6219 -88.9131 244° Southwest 454 522 28,000  Level Houston Center
Wed 03:55:23 PM 31.5875 -89.0814 257° West 452 520 28,000  Level Houston Center
Wed 03:56:25 PM 31.5619 -89.2244 258° West 451 519 28,000  Level Houston Center
Wed 03:57:28 PM 31.5344 -89.3683 257° West 455 524 28,000  Level Houston Center
Wed 03:58:30 PM 31.5061 -89.5122 257° West 455 524 28,000 -387 Level Houston Center
Wed 03:59:32 PM 31.4733 -89.6742 257° West 465 535 27,200 -919 Descending Houston Center
Wed 04:00:34 PM 31.4342 -89.8136 252° West 459 528 26,100 -1,113 Descending Houston Center
Wed 04:01:36 PM 31.3978 -89.9500 253° West 447 514 24,900 -1,403 Descending Houston Center
Wed 04:02:38 PM 31.3536 -90.1114 252° West 440 506 23,200 -1,452 Descending Houston Center
Wed 04:03:40 PM 31.3108 -90.2422 249° West 435 501 21,900 -1,258 Descending Houston Center
Wed 04:04:42 PM 31.2325 -90.3467 229° Southwest 431 496 20,600 -1,306 Descending Houston Center
Wed 04:05:44 PM 31.1489 -90.4461 226° Southwest 432 497 19,200 -1,440 Descending Houston Center
Wed 04:06:47 PM 31.0664 -90.5422 225° Southwest 427 491 17,600 -1,824 Descending Houston Center
Wed 04:07:49 PM 30.9728 -90.6533 226° Southwest 406 467 15,400 -1,887 Descending Houston Center
Wed 04:08:51 PM 30.8981 -90.7419 226° Southwest 390 449 13,700 -1,548 Descending Houston Center
Wed 04:09:53 PM 30.8292 -90.8306 228° Southwest 376 433 12,200 -1,258 Descending Houston Center
Wed 04:10:55 PM 30.7875 -90.9203 242° Southwest 320 368 11,100 -1,839 Descending Houston Center
Wed 04:11:57 PM 30.7492 -91.0042 242° Southwest 299 344 8,400 -2,468 Descending Houston Center
Wed 04:12:59 PM 30.7125 -91.0875 243° Southwest 292 336 6,000 -2,304 Descending Houston Center
Wed 04:14:02 PM 30.6603 -91.1733 235° Southwest 282 325 3,600 -1,392 Descending Houston Center
Wed 04:15:04 PM 30.6175 -91.2303 229° Southwest 273 314 3,100 -484 Descending Houston Center

Login

Don't have an account? Register now (free) for customized features, flight alerts, and more!